createdAt,value
2019-04-06T00:01:24.180Z,9.46
2019-04-06T00:07:30.458Z,9.36
2019-04-06T00:13:36.635Z,9.32
2019-04-06T00:19:42.571Z,9.38
2019-04-06T00:25:48.906Z,9.43
2019-04-06T00:32:00.535Z,9.43
2019-04-06T00:38:06.297Z,9.43
2019-04-06T00:44:12.079Z,9.46
2019-04-06T00:50:18.107Z,9.54
2019-04-06T00:56:24.008Z,9.55
2019-04-06T01:02:30.285Z,9.48
2019-04-06T01:08:36.212Z,9.45
2019-04-06T01:14:42.068Z,9.50
2019-04-06T01:20:49.494Z,9.51
2019-04-06T01:26:55.325Z,9.48
2019-04-06T01:33:01.091Z,9.50
2019-04-06T01:39:08.127Z,9.57
2019-04-06T01:45:13.849Z,9.67
2019-04-06T01:51:19.865Z,9.62
2019-04-06T01:57:26.331Z,9.59
2019-04-06T02:03:32.097Z,9.56
2019-04-06T02:09:37.946Z,9.54
2019-04-06T02:15:44.376Z,9.48
2019-04-06T02:21:50.168Z,9.41
2019-04-06T02:27:56.025Z,9.39
2019-04-06T02:34:27.564Z,9.38
2019-04-06T02:40:41.196Z,9.41
2019-04-06T02:46:47.187Z,9.40
2019-04-06T02:52:52.894Z,9.47
2019-04-06T02:58:58.754Z,9.47
2019-04-06T03:05:04.767Z,9.38
2019-04-06T03:11:11.200Z,9.37
2019-04-06T03:17:17.265Z,9.40
2019-04-06T03:23:24.857Z,9.48
2019-04-06T03:29:31.131Z,9.42
2019-04-06T03:35:36.992Z,9.38
2019-04-06T03:41:42.973Z,9.45
2019-04-06T03:47:48.715Z,9.45
2019-04-06T03:53:54.469Z,9.46
2019-04-06T04:00:01.359Z,9.48
2019-04-06T04:06:07.381Z,9.43
2019-04-06T04:12:13.972Z,9.46
2019-04-06T04:18:21.697Z,9.44
2019-04-06T04:24:28.238Z,9.41
2019-04-06T04:30:35.549Z,9.45
2019-04-06T04:36:42.071Z,9.51
2019-04-06T04:42:47.887Z,9.50
2019-04-06T04:48:55.279Z,9.50
2019-04-06T04:55:01.005Z,9.53
2019-04-06T05:01:06.762Z,9.51
2019-04-06T05:07:12.797Z,9.49
2019-04-06T05:13:18.699Z,9.48
2019-04-06T05:19:24.532Z,9.46
2019-04-06T05:25:30.338Z,9.51
2019-04-06T05:31:36.265Z,9.52
2019-04-06T05:37:42.704Z,9.60
2019-04-06T05:43:48.750Z,9.64
2019-04-06T05:49:54.551Z,9.73
2019-04-06T05:56:00.277Z,9.81
2019-04-06T06:02:07.826Z,9.76
2019-04-06T06:08:13.743Z,9.77
2019-04-06T06:14:19.480Z,9.82
2019-04-06T06:20:25.248Z,9.95
2019-04-06T06:26:31.751Z,9.98
2019-04-06T06:32:38.383Z,10.00
2019-04-06T06:38:44.355Z,10.06
2019-04-06T06:44:50.562Z,10.13
2019-04-06T06:50:56.484Z,10.17
2019-04-06T06:57:02.405Z,10.26
2019-04-06T07:03:08.241Z,10.41
2019-04-06T07:09:14.009Z,10.47
2019-04-06T07:15:20.392Z,10.58
2019-04-06T07:21:31.694Z,10.65
2019-04-06T07:27:37.525Z,10.72
2019-04-06T07:33:43.600Z,10.88
2019-04-06T07:39:49.429Z,11.02
2019-04-06T07:45:55.230Z,11.14
2019-04-06T07:52:01.299Z,11.26
2019-04-06T07:58:07.446Z,11.43
2019-04-06T08:04:13.534Z,11.59
2019-04-06T08:10:19.507Z,11.70
2019-04-06T08:16:25.473Z,11.85
2019-04-06T08:22:31.448Z,11.92
2019-04-06T08:28:37.564Z,12.05
2019-04-06T08:34:43.499Z,12.09
2019-04-06T08:40:49.907Z,12.20
2019-04-06T08:46:55.827Z,12.58
2019-04-06T08:53:01.620Z,12.85
2019-04-06T08:59:12.335Z,12.88
2019-04-06T09:05:15.728Z,12.97
2019-04-06T09:11:21.527Z,13.03
2019-04-06T09:17:27.680Z,13.29
2019-04-06T09:23:33.515Z,13.57
2019-04-06T09:29:39.518Z,13.45
2019-04-06T09:35:45.534Z,13.37
2019-04-06T09:41:51.939Z,13.37
2019-04-06T09:48:07.480Z,13.41
2019-04-06T09:54:38.247Z,13.77
2019-04-06T10:00:54.367Z,14.23
2019-04-06T10:07:21.769Z,14.34
2019-04-06T10:13:36.929Z,14.23
2019-04-06T10:19:54.297Z,14.12
2019-04-06T10:26:09.688Z,14.17
2019-04-06T10:32:34.344Z,14.21
2019-04-06T10:39:01.758Z,14.09
2019-04-06T10:45:26.536Z,14.30
2019-04-06T10:51:51.141Z,14.41
2019-04-06T10:58:17.191Z,14.46
2019-04-06T11:04:40.770Z,14.76
2019-04-06T11:10:53.043Z,14.95
2019-04-06T11:23:54.035Z,15.23
2019-04-06T11:30:16.286Z,15.35
2019-04-06T11:36:39.957Z,15.44
2019-04-06T11:43:14.273Z,15.52
2019-04-06T11:49:58.193Z,15.54
2019-04-06T11:56:12.781Z,15.78
2019-04-06T12:02:38.111Z,16.04
2019-04-06T12:08:53.119Z,16.37
2019-04-06T12:15:12.045Z,16.36
2019-04-06T12:21:35.549Z,16.54
2019-04-06T12:27:58.804Z,16.54
2019-04-06T12:34:23.611Z,16.65
2019-04-06T12:40:43.534Z,16.80
2019-04-06T12:47:06.763Z,16.82
2019-04-06T12:53:27.191Z,17.14
2019-04-06T12:59:55.105Z,17.09
2019-04-06T13:06:24.219Z,17.46
2019-04-06T13:13:01.206Z,17.50
2019-04-06T13:19:41.296Z,17.43
2019-04-06T13:26:17.859Z,17.78
2019-04-06T13:32:42.835Z,17.89
2019-04-06T13:39:07.183Z,17.98
2019-04-06T13:45:34.924Z,18.18
2019-04-06T13:51:52.631Z,18.13
2019-04-06T13:58:04.293Z,18.33
2019-04-06T14:04:44.273Z,18.51
2019-04-06T14:11:10.931Z,18.59
2019-04-06T14:17:54.475Z,18.84
2019-04-06T14:24:17.624Z,18.92
2019-04-06T14:30:42.407Z,18.86
2019-04-06T14:37:03.980Z,18.85
2019-04-06T14:43:27.895Z,18.88
2019-04-06T14:49:52.582Z,18.81
2019-04-06T14:56:12.513Z,18.93
2019-04-06T15:02:35.355Z,18.89
2019-04-06T15:09:07.395Z,18.98
2019-04-06T15:15:27.636Z,18.98
2019-04-06T15:21:53.041Z,19.03
2019-04-06T15:28:29.999Z,19.05
2019-04-06T15:34:53.102Z,19.16
2019-04-06T15:41:14.224Z,19.07
2019-04-06T15:47:38.822Z,19.04
2019-04-06T15:53:51.542Z,19.19
2019-04-06T16:00:06.340Z,19.73
2019-04-06T16:06:21.143Z,19.95
2019-04-06T16:12:35.648Z,20.16
2019-04-06T16:18:59.065Z,19.93
2019-04-06T16:25:27.412Z,19.46
2019-04-06T16:31:43.810Z,19.22
2019-04-06T16:38:08.764Z,19.15
2019-04-06T16:44:35.034Z,19.10
2019-04-06T16:50:55.386Z,19.09
2019-04-06T16:57:18.069Z,19.00
2019-04-06T17:04:01.373Z,18.87
2019-04-06T17:10:24.680Z,18.81
2019-04-06T17:16:51.295Z,18.65
2019-04-06T17:23:25.188Z,18.51
2019-04-06T17:29:48.228Z,18.21
2019-04-06T17:36:06.361Z,17.95
2019-04-06T17:42:34.107Z,17.69
2019-04-06T17:49:05.920Z,17.55
2019-04-06T17:55:20.653Z,17.39
2019-04-06T18:01:44.466Z,17.20
2019-04-06T18:08:07.958Z,17.04
2019-04-06T18:14:13.869Z,16.83
2019-04-06T18:20:19.968Z,16.61
2019-04-06T18:26:25.746Z,16.42
2019-04-06T18:32:57.842Z,16.27
2019-04-06T18:39:01.028Z,16.16
2019-04-06T18:45:06.903Z,16.05
2019-04-06T18:51:12.721Z,15.92
2019-04-06T18:57:18.871Z,15.77
2019-04-06T19:03:25.292Z,15.59
2019-04-06T19:09:31.569Z,15.47
2019-04-06T19:15:37.739Z,15.31
2019-04-06T19:21:43.704Z,15.13
2019-04-06T19:27:49.736Z,14.96
2019-04-06T19:34:02.444Z,14.47
2019-04-06T19:40:11.635Z,14.24
2019-04-06T19:46:19.457Z,14.14
2019-04-06T19:52:25.618Z,14.06
2019-04-06T19:58:31.508Z,13.95
2019-04-06T20:04:37.653Z,13.88
2019-04-06T20:10:43.730Z,13.69
2019-04-06T20:16:51.210Z,13.49
2019-04-06T20:22:57.058Z,13.35
2019-04-06T20:29:02.904Z,13.26
2019-04-06T20:35:09.719Z,13.24
2019-04-06T20:41:15.709Z,12.81
2019-04-06T20:47:21.658Z,12.48
2019-04-06T20:53:27.677Z,12.29
2019-04-06T20:59:33.443Z,12.24
2019-04-06T21:05:40.503Z,12.28
2019-04-06T21:11:46.918Z,12.25
2019-04-06T21:17:53.419Z,12.22
2019-04-06T21:23:59.419Z,11.88
2019-04-06T21:30:06.205Z,11.62
2019-04-06T21:36:11.996Z,11.49
2019-04-06T21:42:18.216Z,11.53
2019-04-06T21:48:24.887Z,11.59
2019-04-06T21:54:30.883Z,11.59
2019-04-06T22:00:43.718Z,11.55
2019-04-06T22:06:50.615Z,11.46
2019-04-06T22:12:56.768Z,11.47
2019-04-06T22:19:03.228Z,11.10
2019-04-06T22:25:09.572Z,10.97
2019-04-06T22:31:15.592Z,10.92
2019-04-06T22:37:21.776Z,10.96
2019-04-06T22:43:27.593Z,11.03
2019-04-06T22:49:33.852Z,11.05
2019-04-06T22:55:40.252Z,11.10
2019-04-06T23:01:46.271Z,11.02
2019-04-06T23:07:53.374Z,10.86
2019-04-06T23:13:59.638Z,11.03
2019-04-06T23:20:05.757Z,11.24
2019-04-06T23:26:11.607Z,11.20
2019-04-06T23:32:18.139Z,10.98
2019-04-06T23:38:24.822Z,11.11
2019-04-06T23:44:30.956Z,11.28
2019-04-06T23:50:36.678Z,11.51
2019-04-06T23:56:43.966Z,11.57
